sensor_id;sensor_type;location;lat;lon;timestamp;P1;durP1;ratioP1;P2;durP2;ratioP2
57752;SDS011;43583;53.132;6.574;2023-11-21T00:00:00;6.50;;;2.47;;
57752;SDS011;43583;53.132;6.574;2023-11-21T00:02:25;18.02;;;2.65;;
57752;SDS011;43583;53.132;6.574;2023-11-21T00:04:52;11.88;;;3.15;;
57752;SDS011;43583;53.132;6.574;2023-11-21T00:07:17;12.25;;;2.67;;
57752;SDS011;43583;53.132;6.574;2023-11-21T00:09:43;13.05;;;3.13;;
57752;SDS011;43583;53.132;6.574;2023-11-21T00:12:09;9.57;;;3.22;;
57752;SDS011;43583;53.132;6.574;2023-11-21T00:14:38;15.60;;;3.13;;
57752;SDS011;43583;53.132;6.574;2023-11-21T00:17:04;11.52;;;3.08;;
57752;SDS011;43583;53.132;6.574;2023-11-21T00:19:30;17.65;;;3.72;;
57752;SDS011;43583;53.132;6.574;2023-11-21T00:21:56;14.15;;;2.80;;
57752;SDS011;43583;53.132;6.574;2023-11-21T00:24:23;12.88;;;3.55;;
57752;SDS011;43583;53.132;6.574;2023-11-21T00:26:49;11.55;;;3.72;;
57752;SDS011;43583;53.132;6.574;2023-11-21T00:29:15;13.40;;;3.97;;
57752;SDS011;43583;53.132;6.574;2023-11-21T00:31:42;13.68;;;3.95;;
57752;SDS011;43583;53.132;6.574;2023-11-21T00:34:09;8.80;;;4.63;;
57752;SDS011;43583;53.132;6.574;2023-11-21T00:36:34;13.68;;;3.45;;
57752;SDS011;43583;53.132;6.574;2023-11-21T00:39:00;20.25;;;4.30;;
57752;SDS011;43583;53.132;6.574;2023-11-21T00:41:27;15.63;;;3.53;;
57752;SDS011;43583;53.132;6.574;2023-11-21T00:43:52;12.48;;;3.95;;
57752;SDS011;43583;53.132;6.574;2023-11-21T00:46:19;14.32;;;4.38;;
57752;SDS011;43583;53.132;6.574;2023-11-21T00:48:44;18.27;;;4.22;;
57752;SDS011;43583;53.132;6.574;2023-11-21T00:51:10;16.83;;;5.32;;
57752;SDS011;43583;53.132;6.574;2023-11-21T00:53:35;12.35;;;4.75;;
57752;SDS011;43583;53.132;6.574;2023-11-21T00:56:01;15.98;;;3.90;;
57752;SDS011;43583;53.132;6.574;2023-11-21T00:58:27;12.63;;;3.97;;
57752;SDS011;43583;53.132;6.574;2023-11-21T01:00:53;18.30;;;4.88;;
57752;SDS011;43583;53.132;6.574;2023-11-21T01:03:19;18.35;;;5.15;;
57752;SDS011;43583;53.132;6.574;2023-11-21T01:05:45;11.38;;;3.40;;
57752;SDS011;43583;53.132;6.574;2023-11-21T01:08:10;16.90;;;4.28;;
57752;SDS011;43583;53.132;6.574;2023-11-21T01:10:36;16.35;;;5.05;;
57752;SDS011;43583;53.132;6.574;2023-11-21T01:13:02;14.30;;;4.30;;
57752;SDS011;43583;53.132;6.574;2023-11-21T01:15:32;19.00;;;3.63;;
57752;SDS011;43583;53.132;6.574;2023-11-21T01:17:58;20.90;;;4.63;;
57752;SDS011;43583;53.132;6.574;2023-11-21T01:20:23;16.10;;;5.82;;
57752;SDS011;43583;53.132;6.574;2023-11-21T01:22:49;20.65;;;4.35;;
57752;SDS011;43583;53.132;6.574;2023-11-21T01:25:15;15.93;;;5.13;;
57752;SDS011;43583;53.132;6.574;2023-11-21T01:27:41;17.08;;;5.63;;
57752;SDS011;43583;53.132;6.574;2023-11-21T01:30:08;19.17;;;4.63;;
57752;SDS011;43583;53.132;6.574;2023-11-21T01:32:35;16.13;;;4.30;;
57752;SDS011;43583;53.132;6.574;2023-11-21T01:35:01;20.25;;;5.47;;
57752;SDS011;43583;53.132;6.574;2023-11-21T01:37:28;19.45;;;4.22;;
57752;SDS011;43583;53.132;6.574;2023-11-21T01:39:54;15.93;;;5.22;;
57752;SDS011;43583;53.132;6.574;2023-11-21T01:42:22;16.05;;;5.25;;
57752;SDS011;43583;53.132;6.574;2023-11-21T01:44:48;19.05;;;4.70;;
57752;SDS011;43583;53.132;6.574;2023-11-21T01:47:14;19.70;;;4.47;;
57752;SDS011;43583;53.132;6.574;2023-11-21T01:49:42;17.17;;;4.63;;
57752;SDS011;43583;53.132;6.574;2023-11-21T01:52:10;15.52;;;5.10;;
57752;SDS011;43583;53.132;6.574;2023-11-21T01:54:36;17.48;;;4.47;;
57752;SDS011;43583;53.132;6.574;2023-11-21T01:57:03;23.20;;;5.78;;
57752;SDS011;43583;53.132;6.574;2023-11-21T01:59:35;19.17;;;4.85;;
57752;SDS011;43583;53.132;6.574;2023-11-21T02:02:05;27.45;;;5.50;;
57752;SDS011;43583;53.132;6.574;2023-11-21T02:04:34;20.13;;;6.55;;
57752;SDS011;43583;53.132;6.574;2023-11-21T02:07:01;19.65;;;5.10;;
57752;SDS011;43583;53.132;6.574;2023-11-21T02:09:32;24.17;;;5.57;;
57752;SDS011;43583;53.132;6.574;2023-11-21T02:11:58;24.77;;;6.53;;
57752;SDS011;43583;53.132;6.574;2023-11-21T02:14:27;20.65;;;6.05;;
57752;SDS011;43583;53.132;6.574;2023-11-21T02:16:54;21.67;;;7.50;;
57752;SDS011;43583;53.132;6.574;2023-11-21T02:19:21;25.23;;;6.53;;
57752;SDS011;43583;53.132;6.574;2023-11-21T02:21:54;19.23;;;5.80;;
57752;SDS011;43583;53.132;6.574;2023-11-21T02:24:23;22.80;;;5.95;;
57752;SDS011;43583;53.132;6.574;2023-11-21T02:26:49;22.50;;;5.22;;
57752;SDS011;43583;53.132;6.574;2023-11-21T02:29:18;22.17;;;5.95;;
57752;SDS011;43583;53.132;6.574;2023-11-21T02:31:47;30.60;;;6.10;;
57752;SDS011;43583;53.132;6.574;2023-11-21T02:34:15;25.73;;;6.47;;
57752;SDS011;43583;53.132;6.574;2023-11-21T02:36:45;23.00;;;6.97;;
57752;SDS011;43583;53.132;6.574;2023-11-21T02:39:10;25.40;;;6.68;;
57752;SDS011;43583;53.132;6.574;2023-11-21T02:41:37;23.75;;;5.95;;
57752;SDS011;43583;53.132;6.574;2023-11-21T02:44:03;18.77;;;6.70;;
57752;SDS011;43583;53.132;6.574;2023-11-21T02:46:31;27.33;;;7.05;;
57752;SDS011;43583;53.132;6.574;2023-11-21T02:48:57;23.60;;;6.97;;
57752;SDS011;43583;53.132;6.574;2023-11-21T02:51:23;27.75;;;6.55;;
57752;SDS011;43583;53.132;6.574;2023-11-21T02:53:48;16.30;;;5.43;;
57752;SDS011;43583;53.132;6.574;2023-11-21T02:56:16;18.95;;;7.32;;
57752;SDS011;43583;53.132;6.574;2023-11-21T02:58:42;27.88;;;7.75;;
57752;SDS011;43583;53.132;6.574;2023-11-21T03:01:09;26.20;;;7.20;;
57752;SDS011;43583;53.132;6.574;2023-11-21T03:03:35;37.55;;;6.57;;
57752;SDS011;43583;53.132;6.574;2023-11-21T03:06:05;26.02;;;7.13;;
57752;SDS011;43583;53.132;6.574;2023-11-21T03:08:31;29.63;;;7.03;;
57752;SDS011;43583;53.132;6.574;2023-11-21T03:10:57;30.10;;;7.60;;
57752;SDS011;43583;53.132;6.574;2023-11-21T03:13:23;33.33;;;7.00;;
57752;SDS011;43583;53.132;6.574;2023-11-21T03:15:48;34.92;;;7.50;;
57752;SDS011;43583;53.132;6.574;2023-11-21T03:18:14;31.30;;;7.63;;
57752;SDS011;43583;53.132;6.574;2023-11-21T03:20:40;29.90;;;8.88;;
57752;SDS011;43583;53.132;6.574;2023-11-21T03:23:06;21.83;;;7.35;;
57752;SDS011;43583;53.132;6.574;2023-11-21T03:25:32;26.73;;;6.85;;
57752;SDS011;43583;53.132;6.574;2023-11-21T03:27:57;31.80;;;6.93;;
57752;SDS011;43583;53.132;6.574;2023-11-21T03:30:23;29.60;;;7.47;;
57752;SDS011;43583;53.132;6.574;2023-11-21T03:32:48;27.08;;;7.78;;
57752;SDS011;43583;53.132;6.574;2023-11-21T03:35:14;42.25;;;8.52;;
57752;SDS011;43583;53.132;6.574;2023-11-21T03:37:39;31.60;;;6.90;;
57752;SDS011;43583;53.132;6.574;2023-11-21T03:40:06;32.90;;;7.22;;
57752;SDS011;43583;53.132;6.574;2023-11-21T03:42:37;25.40;;;6.95;;
57752;SDS011;43583;53.132;6.574;2023-11-21T03:45:03;33.25;;;7.88;;
57752;SDS011;43583;53.132;6.574;2023-11-21T03:47:30;27.85;;;7.53;;
57752;SDS011;43583;53.132;6.574;2023-11-21T03:49:55;37.47;;;9.07;;
57752;SDS011;43583;53.132;6.574;2023-11-21T03:52:21;28.65;;;7.70;;
57752;SDS011;43583;53.132;6.574;2023-11-21T03:54:46;33.03;;;9.55;;
57752;SDS011;43583;53.132;6.574;2023-11-21T03:57:12;34.63;;;9.73;;
57752;SDS011;43583;53.132;6.574;2023-11-21T03:59:41;24.92;;;8.10;;
57752;SDS011;43583;53.132;6.574;2023-11-21T04:02:07;28.02;;;7.00;;
57752;SDS011;43583;53.132;6.574;2023-11-21T04:04:33;32.35;;;8.30;;
57752;SDS011;43583;53.132;6.574;2023-11-21T04:06:59;38.50;;;7.85;;
57752;SDS011;43583;53.132;6.574;2023-11-21T04:09:24;27.65;;;7.00;;
57752;SDS011;43583;53.132;6.574;2023-11-21T04:11:50;27.20;;;8.60;;
57752;SDS011;43583;53.132;6.574;2023-11-21T04:14:17;37.47;;;9.02;;
57752;SDS011;43583;53.132;6.574;2023-11-21T04:16:43;52.58;;;10.63;;
57752;SDS011;43583;53.132;6.574;2023-11-21T04:19:08;33.20;;;9.80;;
57752;SDS011;43583;53.132;6.574;2023-11-21T04:21:35;37.50;;;10.48;;
57752;SDS011;43583;53.132;6.574;2023-11-21T04:24:01;56.53;;;10.82;;
57752;SDS011;43583;53.132;6.574;2023-11-21T04:26:27;44.03;;;10.20;;
57752;SDS011;43583;53.132;6.574;2023-11-21T04:28:52;46.60;;;10.20;;
57752;SDS011;43583;53.132;6.574;2023-11-21T04:31:18;41.40;;;9.70;;
57752;SDS011;43583;53.132;6.574;2023-11-21T04:33:43;43.83;;;9.57;;
57752;SDS011;43583;53.132;6.574;2023-11-21T04:36:09;45.85;;;10.60;;
57752;SDS011;43583;53.132;6.574;2023-11-21T04:38:35;35.83;;;9.23;;
57752;SDS011;43583;53.132;6.574;2023-11-21T04:41:01;42.95;;;11.05;;
57752;SDS011;43583;53.132;6.574;2023-11-21T04:43:26;40.92;;;10.00;;
57752;SDS011;43583;53.132;6.574;2023-11-21T04:45:52;40.38;;;9.10;;
57752;SDS011;43583;53.132;6.574;2023-11-21T04:48:19;51.95;;;10.43;;
57752;SDS011;43583;53.132;6.574;2023-11-21T04:50:45;47.38;;;10.45;;
57752;SDS011;43583;53.132;6.574;2023-11-21T04:53:10;70.07;;;12.52;;
57752;SDS011;43583;53.132;6.574;2023-11-21T04:55:39;54.55;;;10.70;;
57752;SDS011;43583;53.132;6.574;2023-11-21T04:58:05;50.78;;;10.68;;
57752;SDS011;43583;53.132;6.574;2023-11-21T05:00:30;47.20;;;9.70;;
57752;SDS011;43583;53.132;6.574;2023-11-21T05:02:56;51.28;;;10.75;;
57752;SDS011;43583;53.132;6.574;2023-11-21T05:05:21;38.97;;;10.80;;
57752;SDS011;43583;53.132;6.574;2023-11-21T05:07:47;48.92;;;9.93;;
57752;SDS011;43583;53.132;6.574;2023-11-21T05:10:14;53.15;;;11.45;;
57752;SDS011;43583;53.132;6.574;2023-11-21T05:12:40;47.42;;;11.18;;
57752;SDS011;43583;53.132;6.574;2023-11-21T05:15:07;53.55;;;10.80;;
57752;SDS011;43583;53.132;6.574;2023-11-21T05:17:39;31.92;;;9.50;;
57752;SDS011;43583;53.132;6.574;2023-11-21T05:20:09;40.00;;;11.27;;
57752;SDS011;43583;53.132;6.574;2023-11-21T05:22:36;31.00;;;9.48;;
57752;SDS011;43583;53.132;6.574;2023-11-21T05:25:02;39.45;;;10.25;;
57752;SDS011;43583;53.132;6.574;2023-11-21T05:27:31;32.88;;;9.70;;
57752;SDS011;43583;53.132;6.574;2023-11-21T05:29:57;39.05;;;9.52;;
57752;SDS011;43583;53.132;6.574;2023-11-21T05:32:26;29.20;;;8.10;;
57752;SDS011;43583;53.132;6.574;2023-11-21T05:34:51;41.25;;;9.65;;
57752;SDS011;43583;53.132;6.574;2023-11-21T05:37:17;38.65;;;10.18;;
57752;SDS011;43583;53.132;6.574;2023-11-21T05:39:43;32.40;;;8.02;;
57752;SDS011;43583;53.132;6.574;2023-11-21T05:42:08;21.45;;;7.47;;
57752;SDS011;43583;53.132;6.574;2023-11-21T05:44:35;31.17;;;7.55;;
57752;SDS011;43583;53.132;6.574;2023-11-21T05:47:02;20.48;;;7.13;;
57752;SDS011;43583;53.132;6.574;2023-11-21T05:49:28;23.27;;;6.57;;
57752;SDS011;43583;53.132;6.574;2023-11-21T05:51:54;17.27;;;5.50;;
57752;SDS011;43583;53.132;6.574;2023-11-21T05:54:21;17.23;;;6.68;;
57752;SDS011;43583;53.132;6.574;2023-11-21T05:56:47;16.50;;;6.32;;
57752;SDS011;43583;53.132;6.574;2023-11-21T05:59:12;14.80;;;6.15;;
57752;SDS011;43583;53.132;6.574;2023-11-21T06:01:38;19.40;;;5.60;;
57752;SDS011;43583;53.132;6.574;2023-11-21T06:04:04;16.73;;;6.43;;
57752;SDS011;43583;53.132;6.574;2023-11-21T06:06:30;22.35;;;6.03;;
57752;SDS011;43583;53.132;6.574;2023-11-21T06:08:56;20.80;;;6.30;;
57752;SDS011;43583;53.132;6.574;2023-11-21T06:11:22;17.30;;;5.47;;
57752;SDS011;43583;53.132;6.574;2023-11-21T06:13:49;17.33;;;6.25;;
57752;SDS011;43583;53.132;6.574;2023-11-21T06:16:15;17.67;;;6.60;;
57752;SDS011;43583;53.132;6.574;2023-11-21T06:18:43;19.98;;;6.65;;
57752;SDS011;43583;53.132;6.574;2023-11-21T06:21:09;26.05;;;8.52;;
57752;SDS011;43583;53.132;6.574;2023-11-21T06:23:35;24.70;;;8.27;;
57752;SDS011;43583;53.132;6.574;2023-11-21T06:26:01;20.27;;;5.95;;
57752;SDS011;43583;53.132;6.574;2023-11-21T06:28:27;20.10;;;7.28;;
57752;SDS011;43583;53.132;6.574;2023-11-21T06:30:52;24.35;;;6.90;;
57752;SDS011;43583;53.132;6.574;2023-11-21T06:33:18;21.25;;;7.65;;
57752;SDS011;43583;53.132;6.574;2023-11-21T06:35:44;19.35;;;6.72;;
57752;SDS011;43583;53.132;6.574;2023-11-21T06:38:10;25.45;;;8.57;;
57752;SDS011;43583;53.132;6.574;2023-11-21T06:40:35;26.23;;;8.20;;
57752;SDS011;43583;53.132;6.574;2023-11-21T06:43:01;23.42;;;7.05;;
57752;SDS011;43583;53.132;6.574;2023-11-21T06:45:27;24.25;;;7.20;;
57752;SDS011;43583;53.132;6.574;2023-11-21T06:47:52;24.45;;;7.72;;
57752;SDS011;43583;53.132;6.574;2023-11-21T06:50:18;22.70;;;6.70;;
57752;SDS011;43583;53.132;6.574;2023-11-21T06:52:44;23.00;;;6.90;;
57752;SDS011;43583;53.132;6.574;2023-11-21T06:55:09;22.77;;;6.93;;
57752;SDS011;43583;53.132;6.574;2023-11-21T06:57:35;31.48;;;8.43;;
57752;SDS011;43583;53.132;6.574;2023-11-21T07:00:02;24.77;;;7.93;;
57752;SDS011;43583;53.132;6.574;2023-11-21T07:02:28;22.77;;;7.13;;
57752;SDS011;43583;53.132;6.574;2023-11-21T07:04:54;23.77;;;6.75;;
57752;SDS011;43583;53.132;6.574;2023-11-21T07:07:19;23.30;;;6.32;;
57752;SDS011;43583;53.132;6.574;2023-11-21T07:09:45;27.65;;;7.47;;
57752;SDS011;43583;53.132;6.574;2023-11-21T07:12:11;20.95;;;6.88;;
57752;SDS011;43583;53.132;6.574;2023-11-21T07:14:37;27.08;;;6.70;;
57752;SDS011;43583;53.132;6.574;2023-11-21T07:17:04;22.85;;;6.05;;
57752;SDS011;43583;53.132;6.574;2023-11-21T07:19:29;16.77;;;5.88;;
57752;SDS011;43583;53.132;6.574;2023-11-21T07:21:55;21.40;;;6.85;;
57752;SDS011;43583;53.132;6.574;2023-11-21T07:24:21;20.55;;;6.22;;
57752;SDS011;43583;53.132;6.574;2023-11-21T07:26:48;20.08;;;6.60;;
57752;SDS011;43583;53.132;6.574;2023-11-21T07:29:13;26.00;;;6.78;;
57752;SDS011;43583;53.132;6.574;2023-11-21T07:31:39;14.95;;;5.68;;
57752;SDS011;43583;53.132;6.574;2023-11-21T07:34:06;18.23;;;5.53;;
57752;SDS011;43583;53.132;6.574;2023-11-21T07:36:33;18.13;;;6.03;;
57752;SDS011;43583;53.132;6.574;2023-11-21T07:38:58;16.10;;;5.45;;
57752;SDS011;43583;53.132;6.574;2023-11-21T07:41:24;15.68;;;6.10;;
57752;SDS011;43583;53.132;6.574;2023-11-21T07:43:50;21.25;;;6.30;;
57752;SDS011;43583;53.132;6.574;2023-11-21T07:46:15;16.30;;;6.80;;
57752;SDS011;43583;53.132;6.574;2023-11-21T07:48:42;17.45;;;6.03;;
57752;SDS011;43583;53.132;6.574;2023-11-21T07:51:08;20.13;;;7.75;;
57752;SDS011;43583;53.132;6.574;2023-11-21T07:53:35;17.77;;;6.03;;
57752;SDS011;43583;53.132;6.574;2023-11-21T07:56:04;25.98;;;7.47;;
57752;SDS011;43583;53.132;6.574;2023-11-21T07:58:31;24.95;;;8.73;;
57752;SDS011;43583;53.132;6.574;2023-11-21T08:00:58;23.17;;;8.85;;
57752;SDS011;43583;53.132;6.574;2023-11-21T08:03:25;35.10;;;10.73;;
57752;SDS011;43583;53.132;6.574;2023-11-21T08:05:51;26.67;;;11.35;;
57752;SDS011;43583;53.132;6.574;2023-11-21T08:08:17;28.48;;;11.10;;
57752;SDS011;43583;53.132;6.574;2023-11-21T08:10:43;22.52;;;9.27;;
57752;SDS011;43583;53.132;6.574;2023-11-21T08:13:13;23.60;;;10.45;;
57752;SDS011;43583;53.132;6.574;2023-11-21T08:15:42;26.85;;;10.50;;
57752;SDS011;43583;53.132;6.574;2023-11-21T08:18:11;27.23;;;11.43;;
57752;SDS011;43583;53.132;6.574;2023-11-21T08:20:38;29.67;;;10.70;;
57752;SDS011;43583;53.132;6.574;2023-11-21T08:23:04;23.27;;;9.75;;
57752;SDS011;43583;53.132;6.574;2023-11-21T08:25:31;26.63;;;10.23;;
57752;SDS011;43583;53.132;6.574;2023-11-21T08:27:57;28.20;;;10.23;;
57752;SDS011;43583;53.132;6.574;2023-11-21T08:30:22;22.58;;;8.25;;
57752;SDS011;43583;53.132;6.574;2023-11-21T08:32:49;27.92;;;10.82;;
57752;SDS011;43583;53.132;6.574;2023-11-21T08:35:17;24.35;;;10.20;;
57752;SDS011;43583;53.132;6.574;2023-11-21T08:37:42;27.52;;;10.48;;
57752;SDS011;43583;53.132;6.574;2023-11-21T08:40:08;27.73;;;11.38;;
57752;SDS011;43583;53.132;6.574;2023-11-21T08:42:37;24.88;;;11.40;;
57752;SDS011;43583;53.132;6.574;2023-11-21T08:45:03;24.92;;;11.80;;
57752;SDS011;43583;53.132;6.574;2023-11-21T08:47:29;26.38;;;11.75;;
57752;SDS011;43583;53.132;6.574;2023-11-21T08:49:55;27.00;;;11.38;;
57752;SDS011;43583;53.132;6.574;2023-11-21T08:52:21;22.50;;;10.82;;
57752;SDS011;43583;53.132;6.574;2023-11-21T08:54:49;23.92;;;10.95;;
57752;SDS011;43583;53.132;6.574;2023-11-21T08:57:21;24.23;;;10.75;;
57752;SDS011;43583;53.132;6.574;2023-11-21T08:59:47;24.85;;;11.85;;
57752;SDS011;43583;53.132;6.574;2023-11-21T09:02:13;22.23;;;10.60;;
57752;SDS011;43583;53.132;6.574;2023-11-21T09:04:39;21.92;;;10.82;;
57752;SDS011;43583;53.132;6.574;2023-11-21T09:07:04;22.90;;;10.68;;
57752;SDS011;43583;53.132;6.574;2023-11-21T09:09:30;20.88;;;10.10;;
57752;SDS011;43583;53.132;6.574;2023-11-21T09:11:55;16.20;;;8.38;;
57752;SDS011;43583;53.132;6.574;2023-11-21T09:14:22;16.42;;;9.95;;
57752;SDS011;43583;53.132;6.574;2023-11-21T09:16:47;13.75;;;8.05;;
57752;SDS011;43583;53.132;6.574;2023-11-21T09:19:15;14.82;;;8.65;;
57752;SDS011;43583;53.132;6.574;2023-11-21T09:21:41;17.55;;;8.40;;
57752;SDS011;43583;53.132;6.574;2023-11-21T09:24:06;14.32;;;8.35;;
57752;SDS011;43583;53.132;6.574;2023-11-21T09:26:34;16.58;;;9.27;;
57752;SDS011;43583;53.132;6.574;2023-11-21T09:28:59;16.40;;;9.00;;
57752;SDS011;43583;53.132;6.574;2023-11-21T09:31:27;15.93;;;8.48;;
57752;SDS011;43583;53.132;6.574;2023-11-21T09:33:52;14.75;;;8.20;;
57752;SDS011;43583;53.132;6.574;2023-11-21T09:36:18;18.42;;;8.90;;
57752;SDS011;43583;53.132;6.574;2023-11-21T09:38:44;15.88;;;8.43;;
57752;SDS011;43583;53.132;6.574;2023-11-21T09:41:11;15.07;;;8.15;;
57752;SDS011;43583;53.132;6.574;2023-11-21T09:43:46;14.60;;;8.32;;
57752;SDS011;43583;53.132;6.574;2023-11-21T09:46:17;18.17;;;9.25;;
57752;SDS011;43583;53.132;6.574;2023-11-21T09:48:48;15.48;;;8.52;;
57752;SDS011;43583;53.132;6.574;2023-11-21T09:51:16;13.20;;;8.02;;
57752;SDS011;43583;53.132;6.574;2023-11-21T09:53:45;13.13;;;7.55;;
57752;SDS011;43583;53.132;6.574;2023-11-21T09:56:12;13.40;;;7.75;;
57752;SDS011;43583;53.132;6.574;2023-11-21T09:58:41;13.32;;;7.00;;
57752;SDS011;43583;53.132;6.574;2023-11-21T10:01:06;12.85;;;7.15;;
57752;SDS011;43583;53.132;6.574;2023-11-21T10:03:35;12.15;;;6.60;;
57752;SDS011;43583;53.132;6.574;2023-11-21T10:06:02;10.43;;;6.55;;
57752;SDS011;43583;53.132;6.574;2023-11-21T10:08:30;10.40;;;6.22;;
57752;SDS011;43583;53.132;6.574;2023-11-21T10:10:57;8.05;;;5.15;;
57752;SDS011;43583;53.132;6.574;2023-11-21T10:13:24;9.88;;;5.60;;
57752;SDS011;43583;53.132;6.574;2023-11-21T10:15:51;7.00;;;4.72;;
57752;SDS011;43583;53.132;6.574;2023-11-21T10:18:17;7.40;;;5.05;;
57752;SDS011;43583;53.132;6.574;2023-11-21T10:20:44;9.20;;;5.15;;
57752;SDS011;43583;53.132;6.574;2023-11-21T10:23:17;8.00;;;4.03;;
57752;SDS011;43583;53.132;6.574;2023-11-21T10:25:47;6.97;;;4.25;;
57752;SDS011;43583;53.132;6.574;2023-11-21T10:28:14;5.85;;;3.83;;
57752;SDS011;43583;53.132;6.574;2023-11-21T10:30:40;5.15;;;3.10;;
57752;SDS011;43583;53.132;6.574;2023-11-21T10:33:07;6.57;;;3.38;;
57752;SDS011;43583;53.132;6.574;2023-11-21T10:38:12;5.45;;;3.28;;
57752;SDS011;43583;53.132;6.574;2023-11-21T10:40:39;4.88;;;3.50;;
57752;SDS011;43583;53.132;6.574;2023-11-21T10:43:06;7.20;;;3.40;;
57752;SDS011;43583;53.132;6.574;2023-11-21T10:45:39;5.57;;;3.50;;
57752;SDS011;43583;53.132;6.574;2023-11-21T10:48:09;4.20;;;2.88;;
57752;SDS011;43583;53.132;6.574;2023-11-21T10:50:36;5.40;;;3.17;;
57752;SDS011;43583;53.132;6.574;2023-11-21T10:53:05;5.32;;;3.05;;
57752;SDS011;43583;53.132;6.574;2023-11-21T10:55:33;5.82;;;3.05;;
57752;SDS011;43583;53.132;6.574;2023-11-21T10:58:00;4.78;;;2.78;;
57752;SDS011;43583;53.132;6.574;2023-11-21T11:00:30;4.50;;;2.85;;
57752;SDS011;43583;53.132;6.574;2023-11-21T11:02:59;4.47;;;3.13;;
57752;SDS011;43583;53.132;6.574;2023-11-21T11:05:26;6.72;;;3.38;;
57752;SDS011;43583;53.132;6.574;2023-11-21T11:08:02;6.20;;;3.45;;
57752;SDS011;43583;53.132;6.574;2023-11-21T11:10:30;5.93;;;3.55;;
57752;SDS011;43583;53.132;6.574;2023-11-21T11:12:56;6.95;;;3.15;;
57752;SDS011;43583;53.132;6.574;2023-11-21T11:15:23;7.15;;;4.15;;
57752;SDS011;43583;53.132;6.574;2023-11-21T11:17:49;5.93;;;3.35;;
57752;SDS011;43583;53.132;6.574;2023-11-21T11:20:15;6.32;;;3.90;;
57752;SDS011;43583;53.132;6.574;2023-11-21T11:31:37;6.55;;;2.90;;
57752;SDS011;43583;53.132;6.574;2023-11-21T11:49:29;3.40;;;1.70;;
57752;SDS011;43583;53.132;6.574;2023-11-21T11:57:23;5.82;;;2.15;;
57752;SDS011;43583;53.132;6.574;2023-11-21T12:03:43;6.47;;;2.30;;
57752;SDS011;43583;53.132;6.574;2023-11-21T12:06:08;3.72;;;1.90;;
57752;SDS011;43583;53.132;6.574;2023-11-21T12:08:36;3.40;;;1.70;;
57752;SDS011;43583;53.132;6.574;2023-11-21T12:11:03;3.75;;;2.05;;
57752;SDS011;43583;53.132;6.574;2023-11-21T12:13:29;3.97;;;2.15;;
57752;SDS011;43583;53.132;6.574;2023-11-21T12:15:55;3.78;;;1.95;;
57752;SDS011;43583;53.132;6.574;2023-11-21T12:18:21;6.00;;;2.85;;
57752;SDS011;43583;53.132;6.574;2023-11-21T12:20:46;4.25;;;1.60;;
57752;SDS011;43583;53.132;6.574;2023-11-21T12:23:15;4.10;;;1.38;;
57752;SDS011;43583;53.132;6.574;2023-11-21T12:25:42;3.67;;;1.90;;
57752;SDS011;43583;53.132;6.574;2023-11-21T12:28:08;3.60;;;2.10;;
57752;SDS011;43583;53.132;6.574;2023-11-21T12:30:34;3.08;;;1.50;;
57752;SDS011;43583;53.132;6.574;2023-11-21T12:33:01;1.73;;;1.10;;
57752;SDS011;43583;53.132;6.574;2023-11-21T12:35:29;2.78;;;2.17;;
57752;SDS011;43583;53.132;6.574;2023-11-21T12:37:58;5.60;;;2.10;;
57752;SDS011;43583;53.132;6.574;2023-11-21T12:40:25;3.53;;;1.65;;
57752;SDS011;43583;53.132;6.574;2023-11-21T12:42:55;4.40;;;1.50;;
57752;SDS011;43583;53.132;6.574;2023-11-21T12:45:22;3.22;;;1.60;;
57752;SDS011;43583;53.132;6.574;2023-11-21T12:47:51;3.75;;;2.20;;
57752;SDS011;43583;53.132;6.574;2023-11-21T12:50:33;5.32;;;2.90;;
57752;SDS011;43583;53.132;6.574;2023-11-21T12:53:05;4.68;;;2.45;;
57752;SDS011;43583;53.132;6.574;2023-11-21T12:55:33;4.18;;;1.90;;
57752;SDS011;43583;53.132;6.574;2023-11-21T12:58:03;3.75;;;2.50;;
57752;SDS011;43583;53.132;6.574;2023-11-21T13:00:37;5.90;;;2.33;;
57752;SDS011;43583;53.132;6.574;2023-11-21T13:03:11;5.03;;;2.50;;
57752;SDS011;43583;53.132;6.574;2023-11-21T13:05:41;5.85;;;2.60;;
57752;SDS011;43583;53.132;6.574;2023-11-21T13:08:11;5.68;;;2.95;;
57752;SDS011;43583;53.132;6.574;2023-11-21T13:10:39;4.50;;;2.72;;
57752;SDS011;43583;53.132;6.574;2023-11-21T13:13:07;3.33;;;2.75;;
57752;SDS011;43583;53.132;6.574;2023-11-21T13:15:35;4.15;;;2.58;;
57752;SDS011;43583;53.132;6.574;2023-11-21T13:18:05;4.30;;;2.20;;
57752;SDS011;43583;53.132;6.574;2023-11-21T13:20:32;4.45;;;2.55;;
57752;SDS011;43583;53.132;6.574;2023-11-21T13:22:57;6.50;;;3.10;;
57752;SDS011;43583;53.132;6.574;2023-11-21T13:25:30;6.20;;;2.65;;
57752;SDS011;43583;53.132;6.574;2023-11-21T13:27:59;6.30;;;4.50;;
57752;SDS011;43583;53.132;6.574;2023-11-21T13:30:25;5.68;;;3.45;;
57752;SDS011;43583;53.132;6.574;2023-11-21T13:32:53;7.03;;;3.58;;
57752;SDS011;43583;53.132;6.574;2023-11-21T13:35:22;4.45;;;3.13;;
57752;SDS011;43583;53.132;6.574;2023-11-21T13:37:56;5.68;;;3.17;;
57752;SDS011;43583;53.132;6.574;2023-11-21T13:40:25;5.75;;;3.03;;
57752;SDS011;43583;53.132;6.574;2023-11-21T13:42:55;6.63;;;2.85;;
57752;SDS011;43583;53.132;6.574;2023-11-21T13:45:24;5.82;;;2.67;;
57752;SDS011;43583;53.132;6.574;2023-11-21T13:47:51;4.82;;;3.20;;
57752;SDS011;43583;53.132;6.574;2023-11-21T13:50:21;4.75;;;2.80;;
57752;SDS011;43583;53.132;6.574;2023-11-21T13:52:54;4.72;;;2.60;;
57752;SDS011;43583;53.132;6.574;2023-11-21T13:55:19;4.50;;;2.22;;
57752;SDS011;43583;53.132;6.574;2023-11-21T13:57:46;3.92;;;1.85;;
57752;SDS011;43583;53.132;6.574;2023-11-21T14:00:16;4.22;;;2.08;;
57752;SDS011;43583;53.132;6.574;2023-11-21T14:03:08;5.57;;;2.47;;
57752;SDS011;43583;53.132;6.574;2023-11-21T14:05:42;2.78;;;1.80;;
57752;SDS011;43583;53.132;6.574;2023-11-21T14:08:09;4.00;;;1.90;;
57752;SDS011;43583;53.132;6.574;2023-11-21T14:10:37;2.45;;;1.77;;
57752;SDS011;43583;53.132;6.574;2023-11-21T14:13:08;5.72;;;2.40;;
57752;SDS011;43583;53.132;6.574;2023-11-21T14:15:36;3.67;;;1.92;;
57752;SDS011;43583;53.132;6.574;2023-11-21T14:18:08;3.25;;;1.90;;
57752;SDS011;43583;53.132;6.574;2023-11-21T14:20:38;5.78;;;2.13;;
57752;SDS011;43583;53.132;6.574;2023-11-21T14:23:05;3.17;;;1.92;;
57752;SDS011;43583;53.132;6.574;2023-11-21T14:25:34;3.05;;;1.88;;
57752;SDS011;43583;53.132;6.574;2023-11-21T14:28:01;4.10;;;2.40;;
57752;SDS011;43583;53.132;6.574;2023-11-21T14:30:28;2.83;;;1.50;;
57752;SDS011;43583;53.132;6.574;2023-11-21T14:32:57;2.47;;;1.40;;
57752;SDS011;43583;53.132;6.574;2023-11-21T14:35:23;4.57;;;2.17;;
57752;SDS011;43583;53.132;6.574;2023-11-21T14:37:49;4.38;;;1.83;;
57752;SDS011;43583;53.132;6.574;2023-11-21T14:40:14;3.83;;;1.70;;
57752;SDS011;43583;53.132;6.574;2023-11-21T14:42:42;2.53;;;1.25;;
57752;SDS011;43583;53.132;6.574;2023-11-21T14:45:08;3.50;;;1.30;;
57752;SDS011;43583;53.132;6.574;2023-11-21T14:47:37;4.53;;;2.15;;
57752;SDS011;43583;53.132;6.574;2023-11-21T14:50:07;2.92;;;1.50;;
57752;SDS011;43583;53.132;6.574;2023-11-21T14:52:53;5.22;;;1.48;;
57752;SDS011;43583;53.132;6.574;2023-11-21T14:55:24;4.38;;;1.75;;
57752;SDS011;43583;53.132;6.574;2023-11-21T14:57:57;1.90;;;1.00;;
57752;SDS011;43583;53.132;6.574;2023-11-21T15:00:27;2.50;;;1.13;;
57752;SDS011;43583;53.132;6.574;2023-11-21T15:02:59;4.07;;;0.98;;
57752;SDS011;43583;53.132;6.574;2023-11-21T15:05:25;4.72;;;1.35;;
57752;SDS011;43583;53.132;6.574;2023-11-21T15:07:52;3.17;;;0.80;;
57752;SDS011;43583;53.132;6.574;2023-11-21T15:10:21;1.63;;;1.00;;